Time;durP1;ratioP1;P1;durP2;ratioP2;P2;SDS_P1;SDS_P2;PMS_P1;PMS_P2;Temp;Humidity;BMP_temperature;BMP_pressure;BME280_temperature;BME280_humidity;BME280_pressure;Samples;Min_cycle;Max_cycle;Signal;HPM_P1;HPM_P2
2021/09/20 00:01:20;;;;;;;7.03;5.07;;;;;;;12.16;100.00;96194.84;5075457;28;20017;-76
2021/09/20 00:03:45;;;;;;;8.00;5.17;;;;;;;12.16;100.00;96200.13;5064368;28;20047;-77
2021/09/20 00:06:11;;;;;;;7.07;4.67;;;;;;;12.26;100.00;96198.09;5072464;28;20034;-77
2021/09/20 00:08:37;;;;;;;7.20;4.87;;;;;;;12.28;99.98;96201.41;5058676;28;20067;-77
2021/09/20 00:11:02;;;;;;;9.40;5.10;;;;;;;12.23;100.00;96211.63;5058640;28;20029;-77
2021/09/20 00:13:28;;;;;;;7.43;4.80;;;;;;;12.25;100.00;96209.66;5060961;28;20036;-76
2021/09/20 00:15:54;;;;;;;8.77;4.80;;;;;;;12.24;99.59;96208.03;5060237;28;20036;-77
2021/09/20 00:18:20;;;;;;;9.40;5.07;;;;;;;12.20;100.00;96212.78;5076558;28;20043;-77
2021/09/20 00:20:45;;;;;;;10.80;5.10;;;;;;;12.19;100.00;96223.50;5080467;28;20129;-77
2021/09/20 00:23:11;;;;;;;7.63;5.07;;;;;;;12.17;100.00;96220.22;5083196;28;20224;-77
2021/09/20 00:25:37;;;;;;;8.07;5.23;;;;;;;12.05;100.00;96227.66;5057433;28;20039;-77
2021/09/20 00:28:03;;;;;;;7.17;5.50;;;;;;;12.05;100.00;96222.41;5071276;28;20032;-77
2021/09/20 00:30:29;;;;;;;8.00;5.03;;;;;;;11.91;100.00;96226.56;5079284;28;20532;-76
2021/09/20 00:32:54;;;;;;;8.47;5.40;;;;;;;12.03;100.00;96219.91;5078771;28;20032;-77
2021/09/20 00:35:20;;;;;;;8.60;5.60;;;;;;;12.05;100.00;96225.03;5058633;28;20157;-77
2021/09/20 00:37:46;;;;;;;9.00;5.70;;;;;;;12.00;100.00;96228.19;5072676;28;20044;-77
2021/09/20 00:40:12;;;;;;;8.07;5.87;;;;;;;12.10;100.00;96230.59;5059073;28;20116;-77
2021/09/20 00:42:37;;;;;;;8.47;6.00;;;;;;;11.84;100.00;96230.84;5071186;28;20146;-77
2021/09/20 00:45:06;;;;;;;9.63;5.80;;;;;;;11.40;100.00;96220.66;5073848;28;20105;-77
2021/09/20 00:47:31;;;;;;;7.13;4.90;;;;;;;11.53;100.00;96214.84;5083138;28;20696;-76
2021/09/20 00:49:57;;;;;;;7.47;5.37;;;;;;;11.83;100.00;96226.50;5077546;28;20025;-77
2021/09/20 00:52:23;;;;;;;9.47;5.87;;;;;;;11.93;100.00;96221.91;5071321;28;20040;-78
2021/09/20 00:54:50;;;;;;;8.63;5.50;;;;;;;12.02;100.00;96228.81;5078151;28;20108;-77
2021/09/20 00:57:17;;;;;;;8.17;5.70;;;;;;;11.94;100.00;96228.84;5086628;28;20135;-77
2021/09/20 00:59:43;;;;;;;10.33;5.60;;;;;;;11.47;100.00;96226.91;5055600;28;20021;-77
2021/09/20 01:02:09;;;;;;;10.90;6.70;;;;;;;11.56;100.00;96225.88;5069070;28;20124;-77
2021/09/20 01:04:35;;;;;;;8.73;6.30;;;;;;;11.70;100.00;96223.56;5055828;28;20119;-77
2021/09/20 01:07:01;;;;;;;10.10;6.80;;;;;;;11.68;100.00;96229.00;5055702;28;20048;-76
2021/09/20 01:09:27;;;;;;;8.80;5.83;;;;;;;11.73;100.00;96220.59;5067128;28;20020;-77
2021/09/20 01:11:54;;;;;;;8.17;5.77;;;;;;;11.83;100.00;96230.97;5110258;28;20024;-77
2021/09/20 01:14:20;;;;;;;7.93;5.77;;;;;;;11.63;100.00;96220.78;5055246;28;20100;-77
2021/09/20 01:16:45;;;;;;;10.23;6.00;;;;;;;11.47;100.00;96219.00;5075107;28;20028;-77
2021/09/20 01:19:11;;;;;;;8.53;5.93;;;;;;;11.65;100.00;96220.63;5069855;28;20028;-77
2021/09/20 01:21:37;;;;;;;8.83;6.03;;;;;;;11.78;100.00;96227.03;5088082;28;20031;-77
2021/09/20 01:24:04;;;;;;;8.17;5.67;;;;;;;11.61;100.00;96225.41;5087818;28;20028;-76
2021/09/20 01:26:29;;;;;;;10.30;6.43;;;;;;;11.39;100.00;96228.69;5078588;28;20056;-76
2021/09/20 01:28:55;;;;;;;9.77;6.03;;;;;;;11.37;100.00;96222.75;5084200;28;20035;-76
2021/09/20 01:31:21;;;;;;;9.63;5.90;;;;;;;11.53;100.00;96223.56;5079816;28;20092;-76
2021/09/20 01:33:47;;;;;;;9.70;6.67;;;;;;;11.49;100.00;96216.19;5083716;28;20042;-76
2021/09/20 01:36:13;;;;;;;8.80;6.00;;;;;;;11.50;100.00;96213.41;5075478;28;20043;-77
2021/09/20 01:38:38;;;;;;;11.10;7.00;;;;;;;11.51;100.00;96219.47;5088322;28;20028;-77
2021/09/20 01:41:06;;;;;;;10.83;6.63;;;;;;;11.53;100.00;96217.50;5063342;28;20509;-77
2021/09/20 01:43:31;;;;;;;10.73;6.17;;;;;;;11.67;100.00;96218.63;5069878;28;20147;-76
2021/09/20 01:45:57;;;;;;;9.13;6.37;;;;;;;11.69;100.00;96216.66;5085752;28;20032;-77
2021/09/20 01:48:23;;;;;;;9.67;6.60;;;;;;;11.66;100.00;96214.34;5083327;28;20036;-79
2021/09/20 01:50:49;;;;;;;9.67;6.73;;;;;;;11.56;100.00;96211.91;5073629;28;20040;-78
2021/09/20 01:53:15;;;;;;;8.77;6.50;;;;;;;11.46;100.00;96216.50;5087284;28;20028;-77
2021/09/20 01:55:41;;;;;;;10.47;6.23;;;;;;;11.63;100.00;96220.78;5079306;28;20061;-77
2021/09/20 01:58:07;;;;;;;10.27;6.90;;;;;;;11.64;100.00;96216.34;5080583;28;20102;-77
2021/09/20 02:00:34;;;;;;;8.87;6.37;;;;;;;11.68;100.00;96213.22;5079016;28;20096;-77
2021/09/20 02:03:00;;;;;;;9.03;6.33;;;;;;;11.63;100.00;96212.88;5074710;28;20070;-77
2021/09/20 02:05:25;;;;;;;9.40;6.03;;;;;;;11.44;100.00;96214.06;5064391;28;20059;-78
2021/09/20 02:07:51;;;;;;;9.87;6.90;;;;;;;11.28;100.00;96206.97;5058531;28;20016;-76
2021/09/20 02:10:17;;;;;;;11.83;7.37;;;;;;;11.24;100.00;96203.03;5087803;28;20043;-77
2021/09/20 02:12:44;;;;;;;47.63;28.60;;;;;;;11.39;100.00;96208.44;5077733;28;20054;-77
2021/09/20 02:15:11;;;;;;;13.87;7.90;;;;;;;11.38;100.00;96203.34;5074752;28;20016;-77
2021/09/20 02:17:37;;;;;;;9.23;6.07;;;;;;;11.37;100.00;96213.06;5078974;28;20117;-76
2021/09/20 02:20:04;;;;;;;11.47;7.80;;;;;;;11.52;100.00;96219.31;5074737;28;20654;-77
2021/09/20 02:22:30;;;;;;;10.80;7.37;;;;;;;11.55;100.00;96215.53;5068431;28;20028;-76
2021/09/20 02:24:56;;;;;;;9.43;6.77;;;;;;;11.64;100.00;96211.91;5064678;28;20040;-77
2021/09/20 02:27:22;;;;;;;9.50;6.30;;;;;;;11.55;100.00;96216.34;5053574;28;20549;-76
2021/09/20 02:29:49;;;;;;;10.23;7.23;;;;;;;11.61;100.00;96220.13;5059291;28;20103;-77
2021/09/20 02:32:14;;;;;;;10.40;6.20;;;;;;;11.57;100.00;96216.19;5072439;28;20037;-77
2021/09/20 02:34:40;;;;;;;10.20;6.13;;;;;;;11.64;100.00;96219.81;5059780;28;20070;-77
2021/09/20 02:37:06;;;;;;;10.47;6.27;;;;;;;11.70;100.00;96219.16;5091987;28;20078;-77
2021/09/20 02:39:32;;;;;;;8.73;6.33;;;;;;;11.68;100.00;96217.66;5087783;28;20063;-77
2021/09/20 02:41:57;;;;;;;9.70;6.83;;;;;;;11.70;100.00;96218.28;5071672;28;20032;-76
2021/09/20 02:44:23;;;;;;;8.93;6.30;;;;;;;11.70;100.00;96216.50;5077600;28;20044;-77
2021/09/20 02:46:49;;;;;;;9.83;6.37;;;;;;;11.78;100.00;96228.84;5090147;28;20038;-77
2021/09/20 02:49:15;;;;;;;14.97;9.63;;;;;;;11.80;100.00;96226.84;5084521;28;20038;-77
2021/09/20 02:51:41;;;;;;;11.47;7.87;;;;;;;11.80;100.00;96226.84;5082003;28;20028;-77
2021/09/20 02:54:07;;;;;;;7.83;6.27;;;;;;;11.79;100.00;96230.47;5083743;28;20093;-77
2021/09/20 02:56:33;;;;;;;9.57;6.17;;;;;;;11.75;100.00;96226.53;5067851;28;20031;-77
2021/09/20 02:58:58;;;;;;;11.40;6.53;;;;;;;11.67;100.00;96218.63;5082288;28;20043;-76
2021/09/20 03:01:24;;;;;;;8.80;5.93;;;;;;;11.73;100.00;96226.69;5079173;28;20024;-76
2021/09/20 03:03:50;;;;;;;8.63;6.40;;;;;;;11.70;100.00;96223.56;5077209;28;20028;-76
2021/09/20 03:06:16;;;;;;;17.83;8.07;;;;;;;11.65;100.00;96223.25;5062319;28;20024;-77
2021/09/20 03:08:41;;;;;;;9.80;7.20;;;;;;;11.55;100.00;96229.50;5070229;28;20120;-77
2021/09/20 03:11:07;;;;;;;8.67;6.20;;;;;;;11.65;100.00;96236.44;5059845;28;20051;-76
2021/09/20 03:13:33;;;;;;;8.30;6.47;;;;;;;11.68;100.00;96228.19;5090404;28;20447;-77
2021/09/20 03:15:58;;;;;;;8.77;6.43;;;;;;;11.71;100.00;96231.31;5089260;28;20468;-75
2021/09/20 03:18:24;;;;;;;9.43;7.17;;;;;;;11.66;100.00;96232.78;5080926;28;20497;-77
2021/09/20 03:20:50;;;;;;;9.23;6.23;;;;;;;11.52;100.00;96234.28;5084638;28;20032;-77
2021/09/20 03:23:15;;;;;;;8.40;6.23;;;;;;;11.57;100.00;96239.91;5067548;28;20036;-77
2021/09/20 03:25:41;;;;;;;9.60;6.33;;;;;;;11.65;100.00;96236.44;5064505;28;20059;-76
2021/09/20 03:28:07;;;;;;;9.13;6.67;;;;;;;11.67;100.00;96239.69;5083570;28;20070;-77
2021/09/20 03:30:32;;;;;;;10.63;6.67;;;;;;;11.70;100.00;96250.75;5073802;28;20029;-77
2021/09/20 03:32:58;;;;;;;9.00;6.70;;;;;;;11.67;100.00;96247.59;5063390;28;20048;-77
2021/09/20 03:35:24;;;;;;;9.83;7.13;;;;;;;11.67;100.00;96247.59;5086097;28;20031;-77
2021/09/20 03:37:49;;;;;;;9.53;6.23;;;;;;;11.70;100.00;96247.28;5072622;28;20055;-76
2021/09/20 03:40:18;;;;;;;9.00;6.83;;;;;;;11.36;100.00;96248.25;5063233;28;20029;-77
2021/09/20 03:42:46;;;;;;;10.87;7.80;;;;;;;11.19;100.00;96257.13;5075867;28;20523;-77
2021/09/20 03:45:12;;;;;;;11.47;6.90;;;;;;;11.30;100.00;96249.75;5087418;28;20032;-76
2021/09/20 03:47:38;;;;;;;9.53;6.87;;;;;;;11.26;100.00;96245.78;5062968;28;20092;-76
2021/09/20 03:50:06;;;;;;;11.00;7.67;;;;;;;11.04;100.00;96257.78;5061951;28;20114;-76
2021/09/20 03:52:32;;;;;;;11.80;7.07;;;;;;;11.14;100.00;96251.56;5079685;28;20116;-77
2021/09/20 03:54:58;;;;;;;11.17;7.83;;;;;;;11.08;100.00;96261.72;5080425;28;20130;-76
2021/09/20 03:57:23;;;;;;;10.67;7.20;;;;;;;11.21;100.00;96252.53;5081356;28;20029;-77
2021/09/20 03:59:49;;;;;;;11.47;7.70;;;;;;;11.18;100.00;96258.13;5056878;28;20024;-77
2021/09/20 04:02:15;;;;;;;10.20;7.43;;;;;;;11.06;100.00;96260.22;5078339;28;20036;-77
2021/09/20 04:04:41;;;;;;;10.33;7.30;;;;;;;11.13;100.00;96263.88;5073259;28;20035;-76
2021/09/20 04:07:08;;;;;;;9.70;7.60;;;;;;;11.03;100.00;96250.88;5086091;28;20044;-77
2021/09/20 04:09:34;;;;;;;11.47;8.07;;;;;;;10.94;100.00;96251.03;5058915;28;20542;-77
2021/09/20 04:12:00;;;;;;;12.37;7.87;;;;;;;10.73;100.00;96251.44;5077170;28;20112;-77
2021/09/20 04:14:26;;;;;;;13.50;8.77;;;;;;;10.76;100.00;96254.56;5076528;28;20499;-77
2021/09/20 04:16:52;;;;;;;13.43;8.40;;;;;;;10.82;100.00;96255.75;5077293;28;20028;-77
2021/09/20 04:19:17;;;;;;;14.20;9.10;;;;;;;10.79;100.00;96243.72;5079147;28;20028;-77
2021/09/20 04:21:43;;;;;;;10.77;8.00;;;;;;;10.87;100.00;96248.19;5081481;28;20065;-76
2021/09/20 04:24:10;;;;;;;11.70;8.43;;;;;;;10.84;100.00;96243.25;5064204;28;20028;-77
2021/09/20 04:26:35;;;;;;;13.20;8.30;;;;;;;10.79;100.00;96240.28;5078593;28;20046;-76
2021/09/20 04:29:01;;;;;;;10.97;7.93;;;;;;;10.80;100.00;96257.72;5077462;28;20043;-77
2021/09/20 04:31:27;;;;;;;11.73;8.93;;;;;;;10.87;100.00;96250.84;5065341;28;20032;-77
2021/09/20 04:33:52;;;;;;;11.73;8.93;;;;;;;10.91;100.00;96253.97;5067942;28;20026;-77
2021/09/20 04:36:18;;;;;;;11.47;8.20;;;;;;;10.91;100.00;96246.88;5071776;28;20037;-76
2021/09/20 04:38:44;;;;;;;15.50;11.03;;;;;;;10.98;100.00;96254.97;5068276;28;20028;-77
2021/09/20 04:41:09;;;;;;;18.13;13.73;;;;;;;11.12;100.00;96250.88;5071465;28;20035;-78
2021/09/20 04:43:35;;;;;;;15.23;9.00;;;;;;;11.13;100.00;96253.34;5058174;28;20036;-77
2021/09/20 04:46:01;;;;;;;10.67;8.10;;;;;;;11.21;100.00;96248.09;5072755;28;20039;-77
2021/09/20 04:48:26;;;;;;;11.27;8.20;;;;;;;11.29;100.00;96252.53;5082426;28;20031;-76
2021/09/20 04:50:53;;;;;;;10.43;7.90;;;;;;;11.32;100.00;96260.13;5089887;28;20028;-76
2021/09/20 04:53:18;;;;;;;14.17;8.97;;;;;;;11.33;100.00;96264.38;5064310;28;20501;-76
2021/09/20 04:55:45;;;;;;;17.83;8.17;;;;;;;11.10;100.00;96266.84;5081616;28;20040;-77
2021/09/20 04:58:12;;;;;;;14.73;9.30;;;;;;;11.01;100.00;96266.00;5081296;28;20040;-76
2021/09/20 05:00:39;;;;;;;12.73;7.70;;;;;;;11.17;100.00;96280.19;5071910;28;20029;-77
2021/09/20 05:03:05;;;;;;;11.57;7.93;;;;;;;11.26;100.00;96287.09;5098603;28;20554;-77
2021/09/20 05:05:30;;;;;;;11.07;7.70;;;;;;;11.21;100.00;96278.88;5081003;28;20032;-78
2021/09/20 05:07:56;;;;;;;12.57;8.40;;;;;;;11.14;100.00;96280.50;5082863;28;20024;-77
2021/09/20 05:10:22;;;;;;;12.13;8.23;;;;;;;11.14;100.00;96280.50;5076066;28;20039;-77
2021/09/20 05:12:48;;;;;;;12.37;9.57;;;;;;;11.06;100.00;96287.38;5079037;28;20028;-77
2021/09/20 05:15:15;;;;;;;20.00;10.53;;;;;;;11.15;100.00;96290.03;5072895;28;20033;-77
2021/09/20 05:17:42;;;;;;;10.10;8.03;;;;;;;11.04;100.00;96294.63;5071937;28;20088;-77
2021/09/20 05:20:10;;;;;;;13.33;9.17;;;;;;;10.96;100.00;96293.75;5101666;28;20389;-77
2021/09/20 05:22:36;;;;;;;11.97;8.67;;;;;;;10.95;100.00;96292.13;5089975;28;20028;-77
2021/09/20 05:25:03;;;;;;;10.47;7.80;;;;;;;11.11;100.00;96299.25;5080615;28;20060;-76
2021/09/20 05:27:29;;;;;;;11.97;8.83;;;;;;;11.22;100.00;96305.00;5092740;28;20077;-77
2021/09/20 05:29:56;;;;;;;13.07;8.20;;;;;;;11.16;100.00;96304.84;5091192;28;20035;-77
2021/09/20 05:32:22;;;;;;;13.73;9.00;;;;;;;11.06;100.00;96295.25;5088957;28;20434;-76
2021/09/20 05:34:48;;;;;;;10.40;8.07;;;;;;;11.09;100.00;96310.72;5077371;28;20099;-76
2021/09/20 05:37:14;;;;;;;14.60;9.20;;;;;;;11.18;100.00;96305.50;5084244;28;20052;-76
2021/09/20 05:39:40;;;;;;;10.63;8.37;;;;;;;11.31;100.00;96304.06;5080563;28;20119;-77
2021/09/20 05:42:05;;;;;;;14.97;9.40;;;;;;;11.29;100.00;96311.28;5075580;28;20035;-76
2021/09/20 05:44:32;;;;;;;10.77;8.23;;;;;;;11.04;100.00;96305.16;5074303;28;20050;-77
2021/09/20 05:46:58;;;;;;;12.27;8.43;;;;;;;11.15;100.00;96304.00;5088615;28;20063;-78
2021/09/20 05:49:24;;;;;;;13.23;8.47;;;;;;;11.25;100.00;96309.16;5081997;28;20064;-78
2021/09/20 05:51:50;;;;;;;11.27;8.33;;;;;;;11.07;100.00;96307.47;5077814;28;20050;-77
2021/09/20 05:54:16;;;;;;;14.90;9.90;;;;;;;10.98;100.00;96302.31;5055100;28;20032;-77
2021/09/20 05:56:41;;;;;;;11.17;9.00;;;;;;;11.08;100.00;96309.09;5076860;28;20016;-77
2021/09/20 05:59:07;;;;;;;13.40;9.67;;;;;;;11.19;100.00;96304.50;5072877;28;20124;-77
2021/09/20 06:01:33;;;;;;;13.30;9.63;;;;;;;11.16;100.00;96305.66;5069657;28;20028;-77
2021/09/20 06:03:58;;;;;;;11.87;9.43;;;;;;;11.20;100.00;96303.53;5074253;28;20071;-77
2021/09/20 06:06:24;;;;;;;11.63;8.93;;;;;;;10.91;100.00;96298.69;5085271;28;20700;-77
2021/09/20 06:08:50;;;;;;;12.07;9.23;;;;;;;10.95;100.00;96303.47;5080101;28;20032;-78
2021/09/20 06:11:16;;;;;;;11.23;8.40;;;;;;;11.16;100.00;96305.66;5086860;28;20630;-77
2021/09/20 06:13:42;;;;;;;12.83;9.23;;;;;;;11.16;100.00;96305.66;5084395;28;20078;-77
2021/09/20 06:16:08;;;;;;;15.70;10.00;;;;;;;11.18;100.00;96314.22;5073915;28;20096;-77
2021/09/20 06:18:35;;;;;;;11.93;9.10;;;;;;;11.16;100.00;96318.00;5080971;28;20136;-77
2021/09/20 06:21:01;;;;;;;13.60;8.63;;;;;;;11.11;100.00;96313.22;5081236;28;20114;-78
2021/09/20 06:23:27;;;;;;;15.63;9.83;;;;;;;11.04;100.00;96320.94;5076245;28;20516;-78
2021/09/20 06:25:53;;;;;;;12.87;9.60;;;;;;;11.14;100.00;96318.16;5082535;28;20107;-77
2021/09/20 06:28:19;;;;;;;12.70;9.10;;;;;;;11.25;100.00;96324.94;5089504;28;20028;-77
2021/09/20 06:30:45;;;;;;;12.93;9.27;;;;;;;11.35;100.00;96320.34;5090076;28;20031;-77
2021/09/20 06:33:10;;;;;;;13.10;9.53;;;;;;;11.47;100.00;96326.97;5078944;28;20603;-77
2021/09/20 06:35:36;;;;;;;11.40;8.80;;;;;;;11.55;100.00;96323.50;5081932;28;20020;-77
2021/09/20 06:38:02;;;;;;;12.17;8.63;;;;;;;11.66;100.00;96328.44;5081355;28;20039;-77
2021/09/20 06:40:28;;;;;;;12.87;8.47;;;;;;;11.71;100.00;96330.63;5059712;28;20086;-76
2021/09/20 06:42:55;;;;;;;13.00;8.70;;;;;;;11.73;100.00;96328.63;5073506;28;20062;-76
2021/09/20 06:45:21;;;;;;;11.87;8.53;;;;;;;11.50;100.00;96329.28;5070966;28;20079;-76
2021/09/20 06:47:47;;;;;;;15.30;9.67;;;;;;;11.44;100.00;96322.03;5090785;28;20033;-76
2021/09/20 06:50:13;;;;;;;13.90;9.23;;;;;;;11.48;100.00;96323.34;5071387;28;20029;-77
2021/09/20 06:52:39;;;;;;;16.03;9.67;;;;;;;11.45;100.00;96328.09;5080689;28;20032;-77
2021/09/20 06:55:07;;;;;;;11.70;8.73;;;;;;;11.48;100.00;96325.97;5086142;28;20023;-77
2021/09/20 06:57:32;;;;;;;13.90;9.23;;;;;;;11.69;100.00;96328.13;5070705;28;20108;-77
2021/09/20 06:59:58;;;;;;;12.37;8.80;;;;;;;11.84;100.00;96328.34;5075621;28;20060;-77
2021/09/20 07:02:24;;;;;;;13.10;8.90;;;;;;;12.01;100.00;96327.34;5069155;28;20032;-78
2021/09/20 07:04:49;;;;;;;11.93;9.50;;;;;;;12.05;100.00;96333.09;5090229;28;20036;-77
2021/09/20 07:07:17;;;;;;;12.90;10.27;;;;;;;12.14;100.00;96328.63;5088632;28;20069;-77
2021/09/20 07:09:44;;;;;;;10.93;8.30;;;;;;;12.21;100.00;96334.91;5083706;28;20123;-77
2021/09/20 07:12:10;;;;;;;10.17;8.10;;;;;;;12.27;100.00;96336.84;5072476;28;20040;-77
2021/09/20 07:14:36;;;;;;;11.30;8.47;;;;;;;12.33;100.00;96344.09;5083326;28;20025;-77
2021/09/20 07:17:02;;;;;;;13.90;9.37;;;;;;;12.32;100.00;96341.66;5072254;28;20448;-76
2021/09/20 07:19:28;;;;;;;12.83;8.57;;;;;;;12.42;100.00;96340.47;5091193;28;20066;-77
2021/09/20 07:21:54;;;;;;;12.80;9.00;;;;;;;12.52;100.00;96344.75;5078982;28;20063;-77
2021/09/20 07:24:19;;;;;;;14.10;11.10;;;;;;;12.57;100.00;96345.03;5065743;28;20089;-78
2021/09/20 07:26:45;;;;;;;12.03;8.90;;;;;;;12.66;100.00;96346.69;5082677;28;20052;-78
2021/09/20 07:29:11;;;;;;;12.30;8.63;;;;;;;12.52;100.00;96345.56;5088947;28;20469;-76
2021/09/20 07:31:36;;;;;;;13.40;9.27;;;;;;;12.53;100.00;96341.09;5063142;28;20039;-77
2021/09/20 07:34:02;;;;;;;12.73;8.10;;;;;;;12.60;100.00;96353.44;5076567;28;20146;-76
2021/09/20 07:36:28;;;;;;;11.50;8.73;;;;;;;12.72;100.00;96356.56;5065166;28;20028;-77
2021/09/20 07:38:53;;;;;;;11.03;8.40;;;;;;;12.48;100.00;96357.44;5085876;28;20016;-76
2021/09/20 07:41:20;;;;;;;11.20;8.27;;;;;;;12.53;100.00;96362.22;5063506;28;20047;-77
2021/09/20 07:43:47;;;;;;;11.23;8.37;;;;;;;12.55;100.00;96361.06;5064505;28;20062;-77
2021/09/20 07:46:15;;;;;;;11.60;8.43;;;;;;;12.43;100.00;96363.19;5080548;28;20073;-77
2021/09/20 07:48:41;;;;;;;11.17;7.57;;;;;;;12.41;100.00;96364.38;5067902;28;20043;-76
2021/09/20 07:51:07;;;;;;;14.30;9.53;;;;;;;12.44;100.00;96367.50;5080377;28;20481;-76
2021/09/20 07:53:34;;;;;;;11.20;8.17;;;;;;;12.46;100.00;96367.31;5078450;28;20738;-77
2021/09/20 07:56:00;;;;;;;12.57;8.13;;;;;;;12.45;100.00;96370.97;5083545;28;20047;-77
2021/09/20 07:58:26;;;;;;;12.77;9.73;;;;;;;12.49;100.00;96373.09;5065957;28;20632;-77
2021/09/20 08:00:51;;;;;;;12.70;8.73;;;;;;;12.52;100.00;96371.94;5081588;28;20040;-77
2021/09/20 08:03:17;;;;;;;11.67;8.83;;;;;;;12.65;100.00;96371.44;5071386;28;20032;-78
2021/09/20 08:05:43;;;;;;;23.83;15.23;;;;;;;12.54;100.00;96374.41;5087245;28;20028;-77
2021/09/20 08:08:09;;;;;;;15.03;9.33;;;;;;;12.43;100.00;96376.38;5069076;28;20024;-78
2021/09/20 08:10:36;;;;;;;10.93;8.70;;;;;;;12.43;100.00;96373.75;5082691;28;20037;-77
2021/09/20 08:13:03;;;;;;;12.53;9.10;;;;;;;12.52;100.00;96377.22;5089930;28;20040;-77
2021/09/20 08:15:30;;;;;;;12.67;9.07;;;;;;;12.86;100.00;96386.69;5080444;28;20063;-77
2021/09/20 08:17:55;;;;;;;12.60;7.93;;;;;;;12.98;99.75;96378.25;5072819;28;20102;-78
2021/09/20 08:20:21;;;;;;;13.93;9.60;;;;;;;13.01;99.57;96382.38;5082214;28;20032;-77
2021/09/20 08:22:52;;;;;;;13.40;9.33;;;;;;;13.15;98.18;96365.00;5086254;28;20665;-78
2021/09/20 08:25:22;;;;;;;11.10;8.50;;;;;;;12.90;99.25;96380.91;5094250;28;20092;-78
2021/09/20 08:27:49;;;;;;;11.80;7.80;;;;;;;12.76;99.62;96380.78;5090523;28;20135;-77
2021/09/20 08:30:15;;;;;;;15.27;11.33;;;;;;;13.03;99.65;96387.47;5090797;28;20025;-77
2021/09/20 08:32:41;;;;;;;15.87;12.33;;;;;;;13.20;98.71;96381.13;5068768;28;20056;-78
2021/09/20 08:35:07;;;;;;;12.30;8.77;;;;;;;13.23;99.18;96386.06;5080028;28;20024;-77
2021/09/20 08:37:33;;;;;;;15.03;8.33;;;;;;;13.09;99.77;96390.25;5076809;28;20040;-77
2021/09/20 08:39:59;;;;;;;14.13;8.70;;;;;;;13.17;99.02;96386.75;5085074;28;20059;-77
2021/09/20 08:42:25;;;;;;;11.50;8.27;;;;;;;13.20;98.50;96391.69;5078124;28;20043;-78
2021/09/20 08:44:51;;;;;;;14.13;9.07;;;;;;;13.15;100.00;96399.31;5076731;28;20496;-77
2021/09/20 08:47:18;;;;;;;15.67;9.30;;;;;;;13.14;99.13;96398.47;5096671;28;20084;-78
2021/09/20 08:49:45;;;;;;;11.03;8.03;;;;;;;13.20;98.59;96403.06;5083312;28;20025;-78
2021/09/20 08:52:11;;;;;;;11.97;8.67;;;;;;;13.15;98.07;96407.25;5087915;28;20043;-78
2021/09/20 08:54:37;;;;;;;11.80;8.83;;;;;;;13.19;98.09;96408.53;5078952;28;20025;-78
2021/09/20 08:57:04;;;;;;;11.60;8.73;;;;;;;13.13;98.71;96411.84;5094120;28;20368;-78
2021/09/20 08:59:29;;;;;;;12.17;7.77;;;;;;;13.35;98.15;96407.69;5081128;28;20033;-78
2021/09/20 09:01:55;;;;;;;11.47;8.30;;;;;;;13.26;97.90;96408.72;5072853;28;20047;-78
2021/09/20 09:04:31;;;;;;;11.20;8.10;;;;;;;13.29;98.41;96413.66;5095801;28;20024;-78
2021/09/20 09:07:03;;;;;;;13.20;8.57;;;;;;;13.27;98.76;96415.63;5088737;28;20044;-78
2021/09/20 09:09:38;;;;;;;11.97;8.90;;;;;;;13.42;97.34;96412.09;5087113;28;20048;-78
2021/09/20 09:12:25;;;;;;;12.53;8.03;;;;;;;13.41;96.96;96407.81;5110873;28;20036;-77
2021/09/20 09:14:51;;;;;;;9.77;7.90;;;;;;;13.61;95.53;96410.00;5083697;28;20036;-77
2021/09/20 09:17:26;;;;;;;10.87;7.97;;;;;;;13.70;94.11;96414.25;5076938;28;20028;-77
2021/09/20 09:20:12;;;;;;;14.17;11.53;;;;;;;13.58;94.12;96413.00;5098803;28;20046;-76
2021/09/20 09:22:40;;;;;;;13.33;9.43;;;;;;;13.58;93.66;96413.00;5089744;28;20101;-78
2021/09/20 09:25:08;;;;;;;11.93;8.63;;;;;;;13.78;92.13;96413.38;5070639;28;20251;-78
2021/09/20 09:27:36;;;;;;;10.47;7.93;;;;;;;13.62;93.79;96422.25;5080984;28;20032;-77
2021/09/20 09:30:13;;;;;;;12.00;8.13;;;;;;;13.46;93.27;96428.44;5076503;28;20088;-78
2021/09/20 09:32:40;;;;;;;12.93;8.20;;;;;;;13.48;93.44;96420.31;5083256;28;20616;-78
2021/09/20 09:35:08;;;;;;;13.27;8.43;;;;;;;13.50;93.41;96421.78;5066259;28;20054;-78
2021/09/20 09:37:39;;;;;;;10.80;7.78;;;;;;;13.63;92.88;96418.59;5089288;28;20031;-78
2021/09/20 09:40:20;;;;;;;11.80;8.77;;;;;;;13.71;93.42;96415.88;5090326;28;20032;-78
2021/09/20 09:42:46;;;;;;;12.70;9.10;;;;;;;13.80;91.80;96422.78;5086551;28;20114;-77
2021/09/20 09:45:45;;;;;;;11.07;8.57;;;;;;;13.29;95.37;96421.56;5100095;28;20022;-78
2021/09/20 09:48:16;;;;;;;11.50;8.37;;;;;;;13.82;90.91;96418.16;5078562;28;20052;-77
2021/09/20 09:50:46;;;;;;;13.80;9.77;;;;;;;13.39;93.14;96430.09;5082948;28;20044;-78
2021/09/20 09:53:32;;;;;;;20.00;16.33;;;;;;;14.02;90.91;96426.47;5089047;28;20119;-78
2021/09/20 09:56:17;;;;;;;13.90;11.33;;;;;;;14.18;89.96;96419.38;5089368;28;20072;-77
2021/09/20 09:58:58;;;;;;;12.17;8.57;;;;;;;14.58;86.84;96419.06;5088824;28;20401;-77
2021/09/20 10:01:35;;;;;;;11.07;8.10;;;;;;;14.24;88.94;96416.03;5086504;28;20107;-77
2021/09/20 10:04:09;;;;;;;10.73;8.10;;;;;;;14.68;88.36;96408.22;5099372;28;20400;-77
2021/09/20 10:06:57;;;;;;;11.90;8.13;;;;;;;14.59;87.52;96406.69;5065700;28;20033;-78
2021/09/20 10:09:29;;;;;;;11.25;8.45;;;;;;;14.69;88.18;96417.84;5080503;28;20709;-78
2021/09/20 10:11:59;;;;;;;11.35;8.43;;;;;;;14.47;86.68;96419.47;5070505;28;20397;-77
2021/09/20 10:14:27;;;;;;;12.70;9.50;;;;;;;14.39;88.84;96409.78;5072323;28;20512;-78
2021/09/20 10:16:56;;;;;;;12.63;9.33;;;;;;;14.20;90.56;96414.75;5080000;28;20401;-78
2021/09/20 10:19:23;;;;;;;14.20;9.38;;;;;;;14.35;90.96;96408.50;5059120;28;20059;-77
2021/09/20 10:21:49;;;;;;;15.35;11.32;;;;;;;14.55;88.24;96408.03;5087670;28;20064;-77
2021/09/20 10:24:16;;;;;;;13.23;10.10;;;;;;;14.69;87.01;96406.41;5079679;28;20064;-78
2021/09/20 10:26:42;;;;;;;17.67;10.25;;;;;;;14.15;89.85;96410.81;5083912;28;20028;-77
2021/09/20 10:29:12;;;;;;;13.57;10.43;;;;;;;14.19;90.42;96407.81;5078456;28;20631;-77
2021/09/20 10:31:41;;;;;;;14.55;10.73;;;;;;;14.21;89.54;96414.56;5084649;28;20040;-77
2021/09/20 10:34:28;;;;;;;14.80;9.23;;;;;;;14.48;90.36;96417.66;5075520;28;20025;-78
2021/09/20 10:37:03;;;;;;;12.10;8.00;;;;;;;14.62;88.03;96414.25;5085751;28;20043;-77
2021/09/20 10:39:53;;;;;;;13.75;10.60;;;;;;;14.57;89.03;96420.06;5086431;28;20069;-76
2021/09/20 10:42:52;;;;;;;12.57;9.38;;;;;;;14.40;90.38;96423.84;5064963;28;20032;-77
2021/09/20 10:45:38;;;;;;;11.23;8.48;;;;;;;14.63;88.86;96418.53;5082160;28;20021;-77
2021/09/20 10:48:16;;;;;;;11.50;8.70;;;;;;;13.95;90.10;96422.03;5083375;28;20025;-77
2021/09/20 10:50:45;;;;;;;12.35;9.20;;;;;;;14.25;91.15;96423.81;5077327;28;20028;-77
2021/09/20 10:53:32;;;;;;;13.75;9.68;;;;;;;14.83;88.29;96422.31;5080647;28;20024;-77
2021/09/20 10:56:06;;;;;;;12.88;9.45;;;;;;;14.75;87.51;96421.56;5086402;28;20036;-77
2021/09/20 10:58:50;;;;;;;12.95;9.45;;;;;;;14.70;87.78;96418.66;5063711;28;20029;-77
2021/09/20 11:01:16;;;;;;;13.10;9.63;;;;;;;14.71;87.68;96418.47;5079933;28;20501;-77
2021/09/20 11:03:43;;;;;;;11.80;8.60;;;;;;;14.92;87.81;96415.09;5064112;28;20034;-77
2021/09/20 11:06:23;;;;;;;12.13;8.95;;;;;;;14.95;86.35;96421.84;5073058;28;20032;-76
2021/09/20 11:09:02;;;;;;;11.77;9.32;;;;;;;14.06;88.44;96425.09;5089623;28;20051;-77
2021/09/20 11:11:43;;;;;;;14.77;9.95;;;;;;;14.40;89.16;96421.19;5067230;28;20081;-75
2021/09/20 11:14:19;;;;;;;11.65;8.55;;;;;;;14.56;88.26;96422.91;5071242;28;20515;-77
2021/09/20 11:16:50;;;;;;;12.05;9.02;;;;;;;14.69;87.55;96414.34;5078370;28;20099;-75
2021/09/20 11:19:25;;;;;;;12.25;9.13;;;;;;;14.82;86.60;96418.03;5084773;28;20043;-75
2021/09/20 11:22:13;;;;;;;12.20;9.13;;;;;;;15.07;86.00;96420.41;5069977;28;20032;-77
2021/09/20 11:24:53;;;;;;;11.90;9.57;;;;;;;14.85;85.62;96425.63;5077386;28;20492;-78